createdAt,value
2022-09-07T00:00:06.149Z,99.90
2022-09-07T00:02:33.569Z,99.90
2022-09-07T00:05:00.809Z,99.90
2022-09-07T00:07:27.800Z,99.90
2022-09-07T00:09:54.835Z,99.90
2022-09-07T00:12:21.862Z,99.90
2022-09-07T00:14:48.915Z,99.90
2022-09-07T00:17:15.965Z,99.90
2022-09-07T00:19:43.020Z,99.90
2022-09-07T00:22:10.092Z,99.90
2022-09-07T00:24:37.152Z,99.90
2022-09-07T00:27:04.366Z,99.90
2022-09-07T00:29:31.389Z,99.90
2022-09-07T00:31:58.534Z,99.90
2022-09-07T00:34:25.998Z,99.90
2022-09-07T00:36:52.999Z,99.90
2022-09-07T00:39:20.306Z,99.90
2022-09-07T00:41:47.451Z,99.90
2022-09-07T00:44:42.549Z,99.90
2022-09-07T00:47:29.838Z,99.90
2022-09-07T00:49:59.705Z,99.90
2022-09-07T00:52:27.142Z,99.90
2022-09-07T00:54:56.447Z,99.90
2022-09-07T00:57:23.549Z,99.90
2022-09-07T00:59:51.496Z,99.90
2022-09-07T01:02:18.686Z,99.90
2022-09-07T01:04:47.261Z,99.90
2022-09-07T01:07:14.388Z,99.90
2022-09-07T01:09:43.334Z,99.90
2022-09-07T01:12:10.354Z,99.90
2022-09-07T01:14:40.377Z,99.90
2022-09-07T01:17:36.835Z,99.90
2022-09-07T01:20:10.663Z,99.90
2022-09-07T01:23:02.051Z,99.90
2022-09-07T01:26:02.892Z,99.90
2022-09-07T01:28:31.350Z,99.90
2022-09-07T01:30:59.786Z,99.90
2022-09-07T01:34:04.788Z,99.90
2022-09-07T01:36:46.904Z,99.90
2022-09-07T01:39:14.084Z,99.90
2022-09-07T01:41:58.441Z,99.90
2022-09-07T01:44:53.856Z,99.90
2022-09-07T01:47:22.050Z,99.90
2022-09-07T01:49:55.512Z,99.90
2022-09-07T01:52:56.649Z,99.90
2022-09-07T01:55:40.279Z,99.90
2022-09-07T01:58:25.603Z,99.90
2022-09-07T02:01:22.575Z,99.90
2022-09-07T02:03:56.946Z,99.90
2022-09-07T02:06:31.479Z,99.90
2022-09-07T02:09:03.881Z,99.90
2022-09-07T02:11:39.807Z,99.90
2022-09-07T02:14:20.665Z,99.90
2022-09-07T02:17:09.319Z,99.90
2022-09-07T02:19:41.172Z,99.90
2022-09-07T02:22:14.135Z,99.90
2022-09-07T02:24:43.311Z,99.90
2022-09-07T02:27:39.546Z,99.90
2022-09-07T02:30:07.046Z,99.90
2022-09-07T02:32:34.120Z,99.90
2022-09-07T02:35:01.301Z,99.90
2022-09-07T02:37:28.674Z,99.90
2022-09-07T02:39:55.850Z,99.90
2022-09-07T02:42:22.930Z,99.90
2022-09-07T02:44:49.961Z,99.90
2022-09-07T02:47:23.101Z,99.90
2022-09-07T02:49:59.042Z,99.90
2022-09-07T02:52:45.066Z,99.90
2022-09-07T02:55:39.101Z,99.90
2022-09-07T02:58:33.058Z,99.90
2022-09-07T03:01:08.175Z,99.90
2022-09-07T03:03:47.334Z,99.90
2022-09-07T03:06:19.831Z,99.90
2022-09-07T03:08:51.964Z,99.90
2022-09-07T03:11:19.008Z,99.90
2022-09-07T03:13:46.448Z,99.90
2022-09-07T03:16:14.707Z,99.90
2022-09-07T03:18:42.672Z,99.90
2022-09-07T03:21:10.586Z,99.90
2022-09-07T03:23:40.211Z,99.90
2022-09-07T03:26:07.274Z,99.90
2022-09-07T03:28:34.588Z,99.90
2022-09-07T03:31:02.414Z,99.90
2022-09-07T03:33:29.793Z,99.90
2022-09-07T03:35:58.677Z,99.90
2022-09-07T03:38:25.707Z,99.90
2022-09-07T03:41:03.497Z,99.90
2022-09-07T03:43:30.864Z,99.90
2022-09-07T03:46:07.384Z,99.90
2022-09-07T03:48:34.947Z,99.90
2022-09-07T03:51:09.343Z,99.90
2022-09-07T03:53:38.108Z,99.90
2022-09-07T03:56:07.262Z,99.90
2022-09-07T03:58:34.415Z,99.90
2022-09-07T04:01:05.296Z,99.90
2022-09-07T04:03:32.559Z,99.90
2022-09-07T04:06:22.246Z,99.90
2022-09-07T04:08:49.296Z,99.90
2022-09-07T04:11:17.425Z,99.90
2022-09-07T04:13:44.568Z,99.90
2022-09-07T04:16:11.768Z,99.90
2022-09-07T04:18:38.899Z,99.90
2022-09-07T04:21:06.029Z,99.90
2022-09-07T04:23:33.063Z,99.90
2022-09-07T04:26:00.481Z,99.90
2022-09-07T04:28:27.658Z,99.90
2022-09-07T04:30:54.757Z,99.90
2022-09-07T04:33:22.143Z,99.90
2022-09-07T04:35:49.474Z,99.90
2022-09-07T04:38:16.869Z,99.90
2022-09-07T04:40:44.430Z,99.90
2022-09-07T04:43:13.342Z,99.90
2022-09-07T04:45:40.557Z,99.90
2022-09-07T04:48:07.599Z,99.90
2022-09-07T04:50:34.695Z,99.90
2022-09-07T04:53:01.992Z,99.90
2022-09-07T04:55:28.977Z,99.90
2022-09-07T04:57:55.994Z,99.90
2022-09-07T05:00:23.021Z,99.90
2022-09-07T05:02:50.169Z,99.90
2022-09-07T05:05:17.336Z,99.90
2022-09-07T05:07:44.976Z,99.90
2022-09-07T05:10:12.385Z,99.90
2022-09-07T05:12:39.588Z,99.90
2022-09-07T05:15:06.958Z,99.90
2022-09-07T05:17:33.946Z,99.90
2022-09-07T05:21:02.940Z,99.90
2022-09-07T05:23:29.978Z,99.90
2022-09-07T05:25:56.995Z,99.90
2022-09-07T05:28:23.947Z,99.90
2022-09-07T05:36:26.982Z,99.90
2022-09-07T05:38:55.123Z,99.90
2022-09-07T05:41:24.457Z,99.90
2022-09-07T05:46:38.788Z,99.90
2022-09-07T05:49:05.931Z,99.90
2022-09-07T05:51:33.003Z,99.90
2022-09-07T05:54:00.056Z,99.90
2022-09-07T05:56:27.015Z,99.90
2022-09-07T05:58:53.972Z,99.90
2022-09-07T06:01:21.084Z,99.90
2022-09-07T06:03:48.110Z,99.90
2022-09-07T06:06:19.385Z,99.90
2022-09-07T06:08:48.336Z,99.90
2022-09-07T06:11:17.064Z,99.90
2022-09-07T06:13:44.391Z,99.90
2022-09-07T06:16:12.857Z,99.90
2022-09-07T06:18:41.551Z,99.90
2022-09-07T06:21:16.550Z,99.90
2022-09-07T06:23:43.754Z,99.90
2022-09-07T06:26:11.209Z,99.90
2022-09-07T06:28:42.936Z,99.90
2022-09-07T06:31:11.848Z,99.90
2022-09-07T06:33:41.051Z,99.90
2022-09-07T06:36:10.035Z,99.90
2022-09-07T06:38:38.073Z,99.90
2022-09-07T06:43:54.489Z,99.90
2022-09-07T06:49:08.663Z,99.90
2022-09-07T06:51:35.570Z,99.90
2022-09-07T06:56:49.747Z,99.90
2022-09-07T06:59:16.979Z,99.90
2022-09-07T07:01:44.038Z,99.90
2022-09-07T07:04:11.375Z,99.90
2022-09-07T07:06:38.791Z,99.90
2022-09-07T07:09:06.618Z,99.90
2022-09-07T07:11:33.934Z,99.90
2022-09-07T07:14:00.918Z,99.90
2022-09-07T07:16:27.894Z,99.90
2022-09-07T07:18:55.782Z,99.90
2022-09-07T07:21:22.855Z,99.90
2022-09-07T07:23:50.836Z,99.90
2022-09-07T07:26:19.619Z,99.90
2022-09-07T07:29:03.994Z,99.90
2022-09-07T07:31:33.425Z,99.90
2022-09-07T07:34:00.423Z,99.90
2022-09-07T07:36:28.048Z,99.90
2022-09-07T07:44:14.651Z,99.90
2022-09-07T07:46:41.919Z,99.90
2022-09-07T07:49:08.920Z,99.90
2022-09-07T07:54:23.220Z,99.90
2022-09-07T07:56:50.617Z,99.90
2022-09-07T07:59:17.717Z,99.90
2022-09-07T08:01:44.767Z,99.90
2022-09-07T08:04:11.828Z,99.90
2022-09-07T08:06:42.635Z,99.90
2022-09-07T08:09:09.766Z,99.90
2022-09-07T08:11:37.418Z,99.90
2022-09-07T08:14:06.134Z,99.90
2022-09-07T08:16:34.242Z,99.90
2022-09-07T08:19:02.239Z,99.90
2022-09-07T08:21:29.605Z,99.90
2022-09-07T08:23:56.730Z,99.90
2022-09-07T08:26:23.749Z,99.90
2022-09-07T08:28:50.690Z,99.90
2022-09-07T08:31:17.876Z,99.90
2022-09-07T08:33:45.138Z,99.90
2022-09-07T08:36:12.939Z,99.90
2022-09-07T08:38:40.079Z,99.90
2022-09-07T08:41:28.897Z,99.90
2022-09-07T08:43:57.331Z,99.90
2022-09-07T08:46:36.542Z,99.90
2022-09-07T08:49:03.696Z,99.90
2022-09-07T10:25:56.628Z,99.90
2022-09-07T10:28:24.245Z,99.80
2022-09-07T10:31:16.306Z,97.00
2022-09-07T10:37:04.757Z,95.40
2022-09-07T10:39:37.175Z,97.00
2022-09-07T10:42:10.551Z,93.10
2022-09-07T11:03:29.610Z,86.20
2022-09-07T11:06:19.167Z,87.50
2022-09-07T11:12:06.224Z,88.20
2022-09-07T11:15:05.523Z,87.60
2022-09-07T11:17:43.054Z,88.70
2022-09-07T11:20:43.755Z,87.10
2022-09-07T11:23:25.503Z,84.10
2022-09-07T11:26:04.041Z,84.00
2022-09-07T11:29:29.249Z,84.30
2022-09-07T11:31:44.087Z,83.80
2022-09-07T11:34:30.101Z,82.30
2022-09-07T11:37:54.727Z,79.40
2022-09-07T11:40:27.679Z,80.10
2022-09-07T11:42:59.740Z,82.10
2022-09-07T11:45:29.816Z,76.70
2022-09-07T11:48:02.503Z,75.70
2022-09-07T11:50:33.014Z,77.60
2022-09-07T11:53:21.074Z,73.90
2022-09-07T11:55:50.361Z,72.10
2022-09-07T11:58:32.563Z,72.70
2022-09-07T12:01:21.219Z,73.70
2022-09-07T12:04:15.614Z,73.20
2022-09-07T12:07:07.070Z,70.50
2022-09-07T12:09:40.194Z,68.90
2022-09-07T12:12:22.357Z,67.40
2022-09-07T12:15:18.616Z,66.70
2022-09-07T12:17:51.401Z,64.50
2022-09-07T12:20:19.945Z,66.00
2022-09-07T12:23:13.171Z,64.60
2022-09-07T12:25:40.295Z,62.30
2022-09-07T12:28:24.697Z,62.90
2022-09-07T12:30:57.234Z,63.00
2022-09-07T12:33:26.485Z,61.00
2022-09-07T12:35:55.224Z,60.00
2022-09-07T12:38:59.950Z,59.80
2022-09-07T12:41:44.795Z,59.30
2022-09-07T12:44:19.757Z,58.40
2022-09-07T12:46:48.670Z,60.00
2022-09-07T12:49:22.703Z,59.20
2022-09-07T12:52:16.024Z,59.40
2022-09-07T12:55:16.501Z,59.90
2022-09-07T12:58:00.072Z,59.30
2022-09-07T13:00:45.043Z,59.60
2022-09-07T13:07:01.825Z,59.00
2022-09-07T13:09:33.177Z,59.60
2022-09-07T13:12:01.099Z,59.70
2022-09-07T13:14:29.164Z,57.50
2022-09-07T13:17:27.044Z,57.80
2022-09-07T13:19:54.303Z,58.40
2022-09-07T13:22:33.638Z,59.20
2022-09-07T13:25:27.325Z,59.40
2022-09-07T13:28:00.979Z,58.70
2022-09-07T13:30:29.384Z,58.30
2022-09-07T13:33:24.258Z,58.70
2022-09-07T13:36:06.424Z,58.60
2022-09-07T13:38:35.004Z,58.20
2022-09-07T13:41:16.015Z,59.00
2022-09-07T13:43:58.552Z,59.70
2022-09-07T13:46:37.501Z,60.80
2022-09-07T13:49:35.938Z,61.60
2022-09-07T13:52:22.650Z,63.80
2022-09-07T13:55:09.831Z,62.90
2022-09-07T13:57:44.665Z,64.00
2022-09-07T14:00:15.622Z,63.60
2022-09-07T14:02:42.650Z,64.40
2022-09-07T14:05:11.655Z,65.00
2022-09-07T14:07:42.018Z,65.30
2022-09-07T14:10:19.594Z,64.80
2022-09-07T14:12:49.135Z,66.00
2022-09-07T14:15:21.622Z,67.50
2022-09-07T14:17:48.889Z,70.10
2022-09-07T14:20:17.020Z,70.20
2022-09-07T14:22:44.323Z,72.10
2022-09-07T14:25:22.571Z,72.00
2022-09-07T14:27:49.884Z,69.80
2022-09-07T14:30:20.389Z,69.30
2022-09-07T14:35:28.569Z,69.30
2022-09-07T14:37:56.459Z,69.60
2022-09-07T14:40:24.687Z,69.30
2022-09-07T14:42:53.209Z,69.00
2022-09-07T14:45:23.115Z,68.70
2022-09-07T14:47:54.239Z,69.90
2022-09-07T14:50:41.025Z,70.80
2022-09-07T14:56:20.165Z,75.70
2022-09-07T14:58:49.622Z,75.50
2022-09-07T15:04:04.292Z,81.10
2022-09-07T15:09:37.184Z,87.40
2022-09-07T15:12:18.333Z,87.80
2022-09-07T15:14:45.446Z,82.80
2022-09-07T15:20:31.879Z,83.50
2022-09-07T15:22:59.214Z,87.40
2022-09-07T15:25:26.232Z,86.50
2022-09-07T15:27:54.357Z,85.50
2022-09-07T15:30:21.690Z,89.00
2022-09-07T15:32:49.479Z,92.40
2022-09-07T15:35:16.686Z,96.30
2022-09-07T15:40:33.294Z,99.30
2022-09-07T15:43:03.040Z,99.50
2022-09-07T15:45:33.793Z,99.90
2022-09-07T15:48:03.042Z,99.90
2022-09-07T15:50:30.107Z,99.90
2022-09-07T15:52:57.571Z,99.90
2022-09-07T15:55:29.020Z,99.90
2022-09-07T15:58:10.583Z,99.90
2022-09-07T16:00:38.479Z,99.90
2022-09-07T16:03:06.437Z,99.90
2022-09-07T16:05:34.334Z,99.90
2022-09-07T16:10:53.912Z,99.90
2022-09-07T16:13:24.266Z,99.90
2022-09-07T16:15:51.410Z,99.90
2022-09-07T16:18:18.597Z,99.90
2022-09-07T16:20:45.637Z,99.90
2022-09-07T16:23:15.599Z,99.90
2022-09-07T16:25:43.542Z,99.90
2022-09-07T16:28:10.953Z,99.90
2022-09-07T16:30:41.238Z,99.90
2022-09-07T16:33:08.441Z,99.90
2022-09-07T16:35:35.545Z,99.90
2022-09-07T16:40:51.323Z,99.90
2022-09-07T16:43:19.044Z,99.90
2022-09-07T16:48:34.700Z,99.90
2022-09-07T16:51:05.414Z,99.90
2022-09-07T16:53:34.459Z,99.90
2022-09-07T16:56:06.645Z,99.90
2022-09-07T17:01:29.164Z,99.90
2022-09-07T17:03:56.711Z,99.90
2022-09-07T17:06:26.175Z,99.90
2022-09-07T17:08:53.401Z,99.90
2022-09-07T17:37:40.719Z,99.90
2022-09-07T17:40:08.552Z,99.90
2022-09-07T17:45:22.875Z,99.90
2022-09-07T17:47:50.564Z,99.90
2022-09-07T17:50:18.302Z,99.90
2022-09-07T17:52:46.166Z,99.90
2022-09-07T17:55:13.254Z,99.90
2022-09-07T17:57:41.577Z,99.90
2022-09-07T18:00:11.390Z,99.90
2022-09-07T18:02:38.923Z,99.90
2022-09-07T18:05:07.050Z,99.90
2022-09-07T18:07:35.531Z,99.90
2022-09-07T18:10:03.127Z,99.90
2022-09-07T18:12:30.267Z,99.90
2022-09-07T18:14:57.186Z,99.90
2022-09-07T18:17:24.137Z,99.90
2022-09-07T18:19:51.178Z,99.90
2022-09-07T18:22:18.486Z,99.90
2022-09-07T18:24:46.040Z,99.90
2022-09-07T18:27:13.131Z,99.90
2022-09-07T18:29:40.169Z,99.90
2022-09-07T18:32:09.199Z,99.90
2022-09-07T18:34:38.186Z,99.90
2022-09-07T18:37:06.063Z,99.90
2022-09-07T18:39:34.513Z,99.90
2022-09-07T18:42:01.596Z,99.90
2022-09-07T18:47:22.149Z,99.90
2022-09-07T18:49:55.033Z,99.90
2022-09-07T18:55:10.216Z,99.90
2022-09-07T18:57:37.793Z,99.90
2022-09-07T19:00:09.577Z,99.90
2022-09-07T19:02:36.710Z,99.90
2022-09-07T19:07:51.401Z,99.90
2022-09-07T19:10:18.499Z,99.90
2022-09-07T19:12:46.354Z,99.90
2022-09-07T19:15:13.907Z,99.90
2022-09-07T19:17:41.058Z,99.90
2022-09-07T19:20:08.401Z,99.90
2022-09-07T19:22:35.414Z,99.90
2022-09-07T19:25:02.545Z,99.90
2022-09-07T19:27:29.611Z,99.90
2022-09-07T19:29:56.528Z,99.90
2022-09-07T19:32:25.622Z,99.90
2022-09-07T19:34:55.613Z,99.90
2022-09-07T19:37:27.443Z,99.90
2022-09-07T19:39:56.099Z,99.90
2022-09-07T19:42:23.906Z,99.90
2022-09-07T19:44:51.206Z,99.90
2022-09-07T19:47:18.713Z,99.90
2022-09-07T19:49:45.756Z,99.90
2022-09-07T19:52:15.854Z,99.90
2022-09-07T19:54:43.948Z,99.90
2022-09-07T19:57:10.858Z,99.90
2022-09-07T19:59:37.798Z,99.90
2022-09-07T20:02:04.751Z,99.90
2022-09-07T20:04:31.927Z,99.90
2022-09-07T20:07:01.468Z,99.90
2022-09-07T20:09:28.926Z,99.90
2022-09-07T20:11:55.911Z,99.90
2022-09-07T20:14:22.800Z,99.90
2022-09-07T20:16:49.910Z,99.90
2022-09-07T20:19:17.488Z,99.90
2022-09-07T20:21:44.431Z,99.90
2022-09-07T20:24:12.353Z,99.90
2022-09-07T20:26:39.679Z,99.90
2022-09-07T20:29:26.055Z,99.90
2022-09-07T20:31:54.175Z,99.90
2022-09-07T20:34:21.315Z,99.90
2022-09-07T20:36:52.047Z,99.90
2022-09-07T20:39:19.072Z,99.90
2022-09-07T20:41:48.939Z,99.90
2022-09-07T20:44:16.535Z,99.90
2022-09-07T20:46:49.619Z,99.90
2022-09-07T20:49:16.843Z,99.90
2022-09-07T20:51:43.750Z,99.90
2022-09-07T20:54:10.726Z,99.90
2022-09-07T20:56:40.815Z,99.90
2022-09-07T20:59:07.955Z,99.90
2022-09-07T21:01:45.395Z,99.90
2022-09-07T21:04:17.748Z,99.90
2022-09-07T21:06:44.787Z,99.90
2022-09-07T21:09:15.351Z,99.90
2022-09-07T21:11:46.155Z,99.90
2022-09-07T21:14:24.740Z,99.90
2022-09-07T21:16:54.072Z,99.90
2022-09-07T21:19:21.396Z,99.90
2022-09-07T21:21:50.490Z,99.90
2022-09-07T21:24:18.423Z,99.90
2022-09-07T21:26:45.531Z,99.90
2022-09-07T21:29:22.117Z,99.90
2022-09-07T21:31:49.085Z,99.90
2022-09-07T21:34:16.286Z,99.90
2022-09-07T21:36:43.194Z,99.90
2022-09-07T21:39:14.195Z,99.90
2022-09-07T21:44:17.407Z,99.90
2022-09-07T21:46:44.649Z,99.90
2022-09-07T21:49:14.919Z,99.90
2022-09-07T21:51:41.835Z,99.90
2022-09-07T21:54:08.883Z,99.90
2022-09-07T21:56:35.990Z,99.90
2022-09-07T21:59:02.980Z,99.90
2022-09-07T22:01:30.928Z,99.90
2022-09-07T22:04:02.435Z,99.90
2022-09-07T22:06:29.714Z,99.90
2022-09-07T22:08:56.768Z,99.90
2022-09-07T22:11:24.716Z,99.90
2022-09-07T22:14:00.888Z,99.90
2022-09-07T22:16:28.312Z,99.90
2022-09-07T22:18:55.401Z,99.90
2022-09-07T22:21:30.353Z,99.90
2022-09-07T22:24:00.122Z,99.90
2022-09-07T22:26:30.543Z,99.90
2022-09-07T22:28:58.138Z,99.90
2022-09-07T22:31:32.569Z,99.90
2022-09-07T22:34:00.439Z,99.90
2022-09-07T22:36:50.957Z,99.90
2022-09-07T22:39:20.306Z,99.90
2022-09-07T22:41:47.875Z,99.90
2022-09-07T22:44:52.478Z,99.90
2022-09-07T22:47:19.512Z,99.90
2022-09-07T22:49:46.708Z,99.90
2022-09-07T22:52:14.666Z,99.90
2022-09-07T22:54:42.354Z,99.90
2022-09-07T22:57:09.279Z,99.90
2022-09-07T22:59:36.813Z,99.90
2022-09-07T23:02:03.770Z,99.90
2022-09-07T23:04:31.835Z,99.90
2022-09-07T23:06:59.763Z,99.90
2022-09-07T23:09:29.333Z,99.90
2022-09-07T23:11:56.616Z,99.90
2022-09-07T23:14:23.931Z,99.90
2022-09-07T23:16:51.039Z,99.90
2022-09-07T23:19:18.607Z,99.90
2022-09-07T23:21:45.813Z,99.90
2022-09-07T23:24:17.014Z,99.90
2022-09-07T23:26:50.121Z,99.90
2022-09-07T23:29:17.094Z,99.90
2022-09-07T23:31:45.761Z,99.90
2022-09-07T23:34:12.698Z,99.90
2022-09-07T23:36:39.695Z,99.90
2022-09-07T23:39:06.628Z,99.90
2022-09-07T23:41:33.595Z,99.90
2022-09-07T23:44:00.682Z,99.90
2022-09-07T23:46:30.602Z,99.90
2022-09-07T23:48:57.515Z,99.90
2022-09-07T23:51:24.924Z,99.90
2022-09-07T23:53:56.326Z,99.90
2022-09-07T23:56:26.241Z,99.90
2022-09-07T23:58:56.394Z,99.90
